This is the latest recevied weather packets stored in our database for station/object HS1AXC-1. If no packets are shown the sender has not sent any weather packets the latest 10 day(s).
| Time | Temp. | Humidity | Pressure | Rain* | Wind** | Luminosity | Snow |
|---|---|---|---|---|---|---|---|
| 1777420576 | 34.44° C | 82% | 1009 hPa | - | - | 1 W/m² | - |
| 1777419954 | 33.89° C | 83% | 1009 hPa | - | - | 0 W/m² | - |
| 1777419332 | 33.89° C | 84% | 1008 hPa | - | - | 0 W/m² | - |
| 1777418710 | 34.44° C | 81% | 1008 hPa | - | - | 0 W/m² | - |
| 1777418088 | 33.89° C | 83% | 1008 hPa | - | - | 0 W/m² | - |
| 1777417466 | 33.33° C | 85% | 1008 hPa | - | - | 0 W/m² | - |
| 1777416844 | 33.89° C | 82% | 1008 hPa | - | - | 0 W/m² | - |
| 1777416221 | 33.89° C | 83% | 1008 hPa | - | - | 0 W/m² | - |
| 1777415599 | 33.89° C | 83% | 1008 hPa | - | - | 0 W/m² | - |
| 1777414977 | 33.89° C | 81% | 1008 hPa | - | - | 0 W/m² | - |
| 1777414355 | 34.44° C | 79% | 1008 hPa | - | - | 0 W/m² | - |
| 1777413734 | 34.44° C | 80% | 1008 hPa | - | - | 0 W/m² | - |
| 1777413112 | 34.44° C | 79% | 1007 hPa | - | - | 0 W/m² | - |
| 1777412490 | 34.44° C | 77% | 1007 hPa | - | - | 0 W/m² | - |
| 1777411868 | 34.44° C | 78% | 1007 hPa | - | - | 0 W/m² | - |
| 1777411245 | 34.44° C | 76% | 1007 hPa | - | - | 0 W/m² | - |
| 1777410623 | 33.89° C | 80% | 1007 hPa | - | - | 0 W/m² | - |
| 1777410001 | 34.44° C | 77% | 1007 hPa | - | - | 0 W/m² | - |
| 1777409379 | 33.89° C | 78% | 1007 hPa | - | - | 0 W/m² | - |
| 1777408757 | 33.33° C | 82% | 1007 hPa | - | - | 0 W/m² | - |
| 1777408135 | 34.44° C | 77% | 1007 hPa | - | - | 0 W/m² | - |
| 1777407513 | 33.89° C | 79% | 1007 hPa | - | - | 0 W/m² | - |
| 1777406891 | 34.44° C | 77% | 1007 hPa | - | - | 0 W/m² | - |
| 1777406281 | 34.44° C | 75% | 1007 hPa | - | - | 0 W/m² | - |
| 1777405659 | 33.89° C | 78% | 1008 hPa | - | - | 0 W/m² | - |
* Rain since midnight (hover to see other rain measurements)
** Current wind speed in m/s (hover to see current wind gust speed)